createdAt,value
2022-12-04T00:03:33.261Z,23.63
2022-12-04T00:06:21.651Z,19.05
2022-12-04T00:09:09.011Z,21.48
2022-12-04T00:11:56.091Z,20.73
2022-12-04T00:15:16.461Z,20.52
2022-12-04T00:17:50.116Z,23.83
2022-12-04T00:20:40.443Z,21.55
2022-12-04T00:23:27.477Z,18.60
2022-12-04T00:26:19.377Z,19.45
2022-12-04T00:29:06.536Z,21.92
2022-12-04T00:31:53.636Z,20.38
2022-12-04T00:34:40.661Z,20.08
2022-12-04T00:37:28.369Z,21.05
2022-12-04T00:40:15.512Z,17.63
2022-12-04T00:43:02.934Z,19.13
2022-12-04T00:46:15.023Z,19.27
2022-12-04T00:49:08.963Z,20.23
2022-12-04T00:51:56.032Z,17.00
2022-12-04T00:54:43.018Z,18.35
2022-12-04T00:57:30.491Z,17.83
2022-12-04T01:00:18.582Z,17.95
2022-12-04T01:03:07.333Z,17.08
2022-12-04T01:05:54.409Z,17.75
2022-12-04T01:08:41.426Z,15.93
2022-12-04T01:11:30.013Z,15.40
2022-12-04T01:14:17.116Z,17.08
2022-12-04T01:17:07.226Z,16.40
2022-12-04T01:19:54.593Z,15.00
2022-12-04T01:22:43.941Z,18.42
2022-12-04T01:25:32.259Z,15.20
2022-12-04T01:28:19.888Z,15.80
2022-12-04T01:31:10.199Z,17.17
2022-12-04T01:33:57.531Z,17.85
2022-12-04T01:36:44.603Z,16.55
2022-12-04T01:39:31.615Z,15.05
2022-12-04T01:42:18.650Z,15.30
2022-12-04T01:45:37.367Z,15.98
2022-12-04T01:48:35.358Z,17.35
2022-12-04T01:51:36.379Z,16.08
2022-12-04T01:54:28.992Z,19.15
2022-12-04T01:57:22.191Z,19.42
2022-12-04T02:00:12.622Z,17.08
2022-12-04T02:03:00.302Z,16.42
2022-12-04T02:05:47.441Z,14.00
2022-12-04T02:08:36.043Z,12.15
2022-12-04T02:11:42.222Z,15.65
2022-12-04T02:15:03.997Z,14.52
2022-12-04T02:18:18.974Z,15.30
2022-12-04T02:21:14.390Z,13.48
2022-12-04T02:24:29.082Z,17.52
2022-12-04T02:27:32.444Z,15.05
2022-12-04T02:30:19.596Z,16.10
2022-12-04T02:33:28.300Z,16.95
2022-12-04T02:36:24.583Z,15.90
2022-12-04T02:39:25.998Z,13.90
2022-12-04T02:42:22.115Z,16.38
2022-12-04T02:45:13.802Z,15.90
2022-12-04T02:48:02.897Z,14.35
2022-12-04T02:50:54.403Z,14.88
2022-12-04T02:53:46.716Z,16.88
2022-12-04T02:56:39.450Z,15.70
2022-12-04T02:59:38.658Z,14.82
2022-12-04T03:02:32.958Z,14.65
2022-12-04T03:05:25.655Z,20.23
2022-12-04T03:08:19.648Z,20.73
2022-12-04T03:11:06.979Z,20.80
2022-12-04T03:14:00.255Z,16.05
2022-12-04T03:16:50.863Z,16.38
2022-12-04T03:19:44.307Z,17.65
2022-12-04T03:22:34.616Z,20.98
2022-12-04T03:25:29.161Z,24.02
2022-12-04T03:28:55.182Z,21.50
2022-12-04T03:31:55.552Z,18.92
2022-12-04T03:34:51.313Z,24.35
2022-12-04T03:38:00.567Z,24.42
2022-12-04T03:41:27.687Z,17.87
2022-12-04T03:44:22.499Z,21.35
2022-12-04T03:47:19.556Z,18.70
2022-12-04T03:50:27.840Z,19.42
2022-12-04T03:53:27.421Z,18.17
2022-12-04T03:56:19.317Z,17.25
2022-12-04T03:59:15.159Z,18.33
2022-12-04T04:02:04.863Z,15.70
2022-12-04T04:04:54.878Z,21.35
2022-12-04T04:08:26.355Z,20.17
2022-12-04T04:11:25.676Z,25.60
2022-12-04T04:14:58.076Z,21.60
2022-12-04T04:18:23.177Z,21.65
2022-12-04T04:21:31.515Z,20.02
2022-12-04T04:24:29.463Z,21.35
2022-12-04T04:27:19.092Z,21.00
2022-12-04T04:30:09.274Z,21.92
2022-12-04T04:35:55.870Z,19.60
2022-12-04T04:39:00.277Z,22.30
2022-12-04T04:41:56.756Z,21.25
2022-12-04T04:45:01.041Z,21.42
2022-12-04T04:48:10.268Z,24.00
2022-12-04T04:51:00.148Z,24.85
2022-12-04T04:53:51.660Z,19.80
2022-12-04T04:56:46.254Z,22.35
2022-12-04T04:59:34.744Z,18.83
2022-12-04T05:02:21.926Z,20.20
2022-12-04T05:05:09.865Z,21.92
2022-12-04T05:07:56.991Z,19.27
2022-12-04T05:10:44.067Z,20.30
2022-12-04T05:13:32.204Z,23.02
2022-12-04T05:16:19.378Z,21.23
2022-12-04T05:19:25.217Z,19.75
2022-12-04T05:22:13.326Z,20.77
2022-12-04T05:25:01.410Z,21.13
2022-12-04T05:27:48.506Z,19.70
2022-12-04T05:30:35.730Z,19.58
2022-12-04T05:33:23.093Z,19.02
2022-12-04T05:36:11.447Z,20.73
2022-12-04T05:38:58.549Z,19.95
2022-12-04T05:41:45.616Z,21.38
2022-12-04T05:44:32.613Z,20.55
2022-12-04T05:47:20.008Z,22.40
2022-12-04T05:50:09.034Z,21.77
2022-12-04T05:52:56.055Z,22.60
2022-12-04T05:55:43.124Z,22.30
2022-12-04T05:58:30.992Z,25.27
2022-12-04T06:01:22.057Z,24.75
2022-12-04T06:04:09.931Z,22.25
2022-12-04T06:06:56.990Z,23.98
2022-12-04T06:09:44.248Z,24.58
2022-12-04T06:12:31.481Z,22.48
2022-12-04T06:15:18.536Z,24.17
2022-12-04T06:18:05.865Z,23.92
2022-12-04T06:20:53.067Z,24.10
2022-12-04T06:23:40.344Z,22.50
2022-12-04T06:26:28.062Z,23.13
2022-12-04T06:29:15.605Z,23.35
2022-12-04T06:32:02.890Z,24.08
2022-12-04T06:34:52.725Z,21.77
2022-12-04T06:37:39.885Z,23.98
2022-12-04T06:40:26.958Z,24.83
2022-12-04T06:43:14.012Z,25.90
2022-12-04T06:46:05.109Z,24.33
2022-12-04T06:48:54.534Z,20.23
2022-12-04T06:51:41.660Z,22.35
2022-12-04T06:54:28.814Z,23.95
2022-12-04T06:57:15.877Z,23.85
2022-12-04T07:00:03.078Z,19.88
2022-12-04T07:02:50.176Z,20.30
2022-12-04T07:05:37.331Z,20.63
2022-12-04T07:08:24.690Z,24.73
2022-12-04T07:11:12.520Z,19.77
2022-12-04T07:13:59.604Z,20.50
2022-12-04T07:16:46.727Z,21.35
2022-12-04T07:19:33.845Z,20.20
2022-12-04T07:22:21.061Z,20.80
2022-12-04T07:25:08.551Z,18.17
2022-12-04T07:27:55.916Z,19.75
2022-12-04T07:30:43.166Z,21.52
2022-12-04T07:33:30.387Z,18.98
2022-12-04T07:36:22.281Z,20.40
2022-12-04T07:39:09.834Z,19.27
2022-12-04T07:41:56.875Z,20.52
2022-12-04T07:44:43.946Z,19.13
2022-12-04T07:47:41.324Z,21.92
2022-12-04T07:50:32.212Z,21.42
2022-12-04T07:53:25.671Z,21.08
2022-12-04T07:56:13.401Z,21.40
2022-12-04T07:59:00.683Z,19.58
2022-12-04T08:01:50.911Z,21.65
2022-12-04T08:04:39.264Z,16.88
2022-12-04T08:07:26.332Z,19.33
2022-12-04T08:10:13.746Z,17.98
2022-12-04T08:13:02.153Z,18.38
2022-12-04T08:15:49.325Z,17.75
2022-12-04T08:18:36.942Z,17.80
2022-12-04T08:21:26.611Z,15.80
2022-12-04T08:24:17.504Z,18.65
2022-12-04T08:27:04.657Z,17.33
2022-12-04T08:29:51.756Z,21.52
2022-12-04T08:32:38.848Z,20.30
2022-12-04T08:35:26.909Z,19.40
2022-12-04T08:38:13.962Z,21.10
2022-12-04T08:41:02.085Z,20.17
2022-12-04T08:43:51.265Z,18.83
2022-12-04T08:46:39.061Z,20.30
2022-12-04T08:49:26.294Z,21.48
2022-12-04T08:52:19.355Z,20.90
2022-12-04T08:55:08.129Z,20.27
2022-12-04T08:58:06.399Z,21.02
2022-12-04T09:01:12.153Z,22.58
2022-12-04T09:04:02.429Z,21.83
2022-12-04T09:06:52.308Z,21.08
2022-12-04T09:09:48.415Z,22.25
2022-12-04T09:12:37.059Z,23.90
2022-12-04T09:15:24.786Z,24.40
2022-12-04T09:18:12.678Z,21.50
2022-12-04T09:21:04.457Z,23.40
2022-12-04T09:23:52.670Z,22.98
2022-12-04T09:26:43.910Z,24.70
2022-12-04T09:29:33.646Z,21.65
2022-12-04T09:32:23.590Z,24.65
2022-12-04T09:35:11.133Z,24.20
2022-12-04T09:37:59.549Z,23.10
2022-12-04T09:41:10.810Z,20.70
2022-12-04T09:44:17.441Z,24.38
2022-12-04T09:47:13.200Z,21.10
2022-12-04T09:50:07.965Z,23.38
2022-12-04T09:52:58.856Z,21.48
2022-12-04T09:55:57.324Z,25.27
2022-12-04T09:58:52.994Z,25.25
2022-12-04T10:02:01.083Z,24.60
2022-12-04T10:04:52.158Z,23.60
2022-12-04T10:08:05.106Z,23.60
2022-12-04T10:11:10.811Z,22.08
2022-12-04T10:14:38.286Z,24.27
2022-12-04T10:17:33.206Z,22.33
2022-12-04T10:20:41.088Z,23.25
2022-12-04T10:23:47.092Z,21.33
2022-12-04T10:26:46.998Z,23.85
2022-12-04T10:29:38.170Z,21.98
2022-12-04T10:32:35.238Z,24.05
2022-12-04T10:35:35.445Z,18.77
2022-12-04T10:41:36.119Z,20.02
2022-12-04T10:44:24.916Z,19.77
2022-12-04T10:47:13.649Z,23.35
2022-12-04T10:50:05.187Z,22.65
2022-12-04T10:52:52.351Z,22.73
2022-12-04T10:55:40.058Z,24.20
2022-12-04T10:58:27.368Z,25.23
2022-12-04T11:01:15.865Z,22.15
2022-12-04T11:04:08.142Z,24.50
2022-12-04T11:07:23.552Z,22.40
2022-12-04T11:10:40.821Z,21.50
2022-12-04T11:13:28.805Z,23.42
2022-12-04T11:16:50.386Z,22.35
2022-12-04T11:19:38.018Z,23.63
2022-12-04T11:22:26.534Z,21.95
2022-12-04T11:25:20.233Z,25.67
2022-12-04T11:28:39.803Z,25.17
2022-12-04T11:31:24.544Z,23.42
2022-12-04T11:34:20.892Z,23.52
2022-12-04T11:37:21.995Z,27.58
2022-12-04T11:40:19.899Z,30.00
2022-12-04T11:43:18.250Z,26.02
2022-12-04T11:46:07.174Z,27.42
2022-12-04T11:48:56.862Z,28.67
2022-12-04T11:52:06.265Z,27.02
2022-12-04T11:55:28.743Z,28.25
2022-12-04T11:58:35.556Z,27.10
2022-12-04T12:01:47.669Z,26.30
2022-12-04T12:04:45.498Z,31.00
2022-12-04T12:08:00.578Z,29.77
2022-12-04T12:11:05.982Z,26.65
2022-12-04T12:14:14.576Z,28.60
2022-12-04T12:17:27.265Z,31.00
2022-12-04T12:20:44.810Z,25.30
2022-12-04T12:23:52.354Z,30.17
2022-12-04T12:26:46.822Z,29.55
2022-12-04T12:29:56.162Z,27.40
2022-12-04T12:33:12.638Z,27.02
2022-12-04T12:36:13.488Z,27.40
2022-12-04T12:39:08.106Z,29.35
2022-12-04T12:41:59.968Z,25.80
2022-12-04T12:45:05.927Z,28.95
2022-12-04T12:47:56.781Z,28.27
2022-12-04T12:51:31.259Z,31.35
2022-12-04T12:54:45.809Z,24.80
2022-12-04T12:57:43.918Z,24.95
2022-12-04T13:00:37.706Z,22.75
2022-12-04T13:03:53.384Z,26.17
2022-12-04T13:06:43.695Z,25.63
2022-12-04T13:09:37.920Z,26.00
2022-12-04T13:12:27.153Z,24.00
2022-12-04T13:15:21.553Z,24.35
2022-12-04T13:18:18.846Z,24.20
2022-12-04T13:21:08.178Z,24.13
2022-12-04T13:24:08.733Z,23.17
2022-12-04T13:27:44.000Z,23.85
2022-12-04T13:30:43.184Z,24.15
2022-12-04T13:33:52.363Z,23.17
2022-12-04T13:37:22.448Z,24.07
2022-12-04T13:40:09.439Z,23.35
2022-12-04T13:43:15.070Z,24.40
2022-12-04T13:46:24.967Z,26.95
2022-12-04T13:49:17.932Z,22.80
2022-12-04T13:52:22.027Z,25.52
2022-12-04T13:55:29.002Z,28.00
2022-12-04T13:58:16.064Z,25.05
2022-12-04T14:01:28.250Z,31.38
2022-12-04T14:04:40.979Z,26.98
2022-12-04T14:07:30.338Z,22.15
2022-12-04T14:10:18.297Z,25.02
2022-12-04T14:13:21.641Z,28.92
2022-12-04T14:16:33.811Z,26.23
2022-12-04T14:19:31.048Z,26.75
2022-12-04T14:22:46.737Z,27.95
2022-12-04T14:25:38.663Z,28.15
2022-12-04T14:28:34.946Z,27.50
2022-12-04T14:31:39.144Z,25.83
2022-12-04T14:34:35.007Z,26.10
2022-12-04T14:37:28.948Z,23.30
2022-12-04T14:41:05.550Z,28.30
2022-12-04T14:43:54.303Z,25.90
2022-12-04T14:46:48.407Z,26.75
2022-12-04T14:49:44.356Z,26.05
2022-12-04T14:52:40.987Z,24.35
2022-12-04T14:55:41.727Z,26.38
2022-12-04T14:58:35.802Z,24.20
2022-12-04T15:01:32.073Z,31.23
2022-12-04T15:04:37.828Z,26.45
2022-12-04T15:07:30.175Z,28.88
2022-12-04T15:10:43.224Z,27.27
2022-12-04T15:13:32.947Z,28.05
2022-12-04T15:16:23.474Z,27.15
2022-12-04T15:19:19.135Z,29.05
2022-12-04T15:22:15.077Z,27.30
2022-12-04T15:25:06.705Z,26.80
2022-12-04T15:28:03.666Z,31.27
2022-12-04T15:30:53.409Z,28.83
2022-12-04T15:33:44.560Z,32.15
2022-12-04T15:36:52.592Z,33.90
2022-12-04T15:39:40.297Z,33.83
2022-12-04T15:42:33.507Z,31.60
2022-12-04T15:45:23.245Z,30.20
2022-12-04T15:48:13.247Z,26.52
2022-12-04T15:51:10.790Z,30.80
2022-12-04T15:53:58.713Z,31.65
2022-12-04T15:56:47.646Z,31.50
2022-12-04T15:59:41.779Z,30.02
2022-12-04T16:02:32.087Z,29.73
2022-12-04T16:05:22.651Z,26.38
2022-12-04T16:08:30.915Z,31.50
2022-12-04T16:11:22.887Z,31.80
2022-12-04T16:14:15.887Z,31.08
2022-12-04T16:17:06.150Z,33.65
2022-12-04T16:19:56.284Z,29.48
2022-12-04T16:22:46.144Z,30.63
2022-12-04T16:25:34.650Z,28.88
2022-12-04T16:28:22.814Z,33.05
2022-12-04T16:31:14.228Z,31.42
2022-12-04T16:34:04.689Z,29.85
2022-12-04T16:36:51.934Z,29.35
2022-12-04T16:39:41.584Z,31.17
2022-12-04T16:42:34.939Z,29.25
2022-12-04T16:45:35.556Z,29.52
2022-12-04T16:48:24.477Z,28.02
2022-12-04T16:51:17.520Z,29.80
2022-12-04T16:54:05.560Z,30.88
2022-12-04T16:56:53.717Z,32.63
2022-12-04T16:59:43.113Z,27.92
2022-12-04T17:02:32.874Z,34.33
2022-12-04T17:05:28.236Z,32.38
2022-12-04T17:08:17.226Z,31.42
2022-12-04T17:11:10.968Z,30.50
2022-12-04T17:13:59.175Z,32.38
2022-12-04T17:16:47.539Z,28.80
2022-12-04T17:19:35.578Z,28.15
2022-12-04T17:22:26.938Z,26.58
2022-12-04T17:25:16.020Z,29.75
2022-12-04T17:28:09.024Z,28.77
2022-12-04T17:30:58.993Z,29.25
2022-12-04T17:33:47.454Z,28.98
2022-12-04T17:36:35.058Z,28.55
2022-12-04T17:39:24.064Z,27.83
2022-12-04T17:42:11.796Z,32.13
2022-12-04T17:44:59.744Z,27.45
2022-12-04T17:47:47.754Z,25.80
2022-12-04T17:50:35.356Z,29.45
2022-12-04T17:53:22.880Z,27.10
2022-12-04T17:56:24.089Z,25.63
2022-12-04T17:59:12.256Z,26.45
2022-12-04T18:02:00.419Z,24.85
2022-12-04T18:04:48.555Z,28.42
2022-12-04T18:07:36.922Z,28.17
2022-12-04T18:10:27.707Z,26.67
2022-12-04T18:13:15.400Z,27.20
2022-12-04T18:16:09.130Z,24.30
2022-12-04T18:18:58.364Z,24.92
2022-12-04T18:21:46.298Z,27.90
2022-12-04T18:24:34.405Z,25.63
2022-12-04T18:27:22.253Z,27.80
2022-12-04T18:30:11.362Z,23.05
2022-12-04T18:32:59.607Z,26.08
2022-12-04T18:35:56.052Z,24.33
2022-12-04T18:38:44.181Z,22.67
2022-12-04T18:41:32.502Z,25.98
2022-12-04T18:44:21.399Z,24.38
2022-12-04T18:47:09.510Z,21.60
2022-12-04T18:49:57.757Z,20.25
2022-12-04T18:52:45.343Z,19.30
2022-12-04T18:55:37.394Z,21.08
2022-12-04T18:58:25.767Z,20.52
2022-12-04T19:01:17.201Z,22.02
2022-12-04T19:04:10.296Z,21.52
2022-12-04T19:10:11.951Z,21.15
2022-12-04T19:12:59.987Z,18.95
2022-12-04T19:15:48.059Z,20.23
2022-12-04T19:18:37.656Z,19.30
2022-12-04T19:21:26.764Z,19.15
2022-12-04T19:24:14.717Z,17.02
2022-12-04T19:27:11.805Z,19.00
2022-12-04T19:30:01.417Z,20.50
2022-12-04T19:32:49.866Z,19.80
2022-12-04T19:35:39.188Z,18.42
2022-12-04T19:38:27.984Z,17.70
2022-12-04T19:41:19.657Z,17.77
2022-12-04T19:44:40.154Z,16.27
2022-12-04T19:47:21.516Z,17.48
2022-12-04T19:50:10.624Z,16.27
2022-12-04T19:52:58.842Z,15.95
2022-12-04T19:55:48.864Z,17.13
2022-12-04T19:58:37.457Z,17.08
2022-12-04T20:01:30.559Z,17.05
2022-12-04T20:04:18.864Z,16.23
2022-12-04T20:07:09.091Z,16.15
2022-12-04T20:10:00.140Z,14.98
2022-12-04T20:12:53.498Z,16.27
2022-12-04T20:15:41.855Z,15.77
2022-12-04T20:18:30.030Z,14.68
2022-12-04T20:21:33.193Z,15.43
2022-12-04T20:24:21.151Z,14.65
2022-12-04T20:27:09.245Z,20.30
2022-12-04T20:29:59.983Z,16.30
2022-12-04T20:32:50.540Z,16.05
2022-12-04T20:35:39.307Z,15.07
2022-12-04T20:38:27.106Z,16.15
2022-12-04T20:41:16.741Z,16.42
2022-12-04T20:44:08.684Z,14.13
2022-12-04T20:46:56.515Z,15.25
2022-12-04T20:49:44.706Z,14.63
2022-12-04T20:52:33.335Z,12.30
2022-12-04T20:55:20.854Z,14.18
2022-12-04T20:58:09.259Z,13.88
2022-12-04T21:00:56.998Z,14.13
2022-12-04T21:03:45.647Z,14.20
2022-12-04T21:06:36.613Z,15.10
2022-12-04T21:09:26.961Z,14.00
2022-12-04T21:12:32.880Z,13.57
2022-12-04T21:15:47.389Z,13.48
2022-12-04T21:18:37.716Z,17.77
2022-12-04T21:24:16.199Z,13.38
2022-12-04T21:27:03.566Z,15.85
2022-12-04T21:29:51.025Z,14.38
2022-12-04T21:32:38.312Z,17.67
2022-12-04T21:35:25.406Z,16.73
2022-12-04T21:38:12.595Z,15.07
2022-12-04T21:40:59.890Z,16.27
2022-12-04T21:43:46.891Z,15.80
2022-12-04T21:46:34.329Z,15.95
2022-12-04T21:49:21.448Z,14.90
2022-12-04T21:52:22.763Z,14.10
2022-12-04T21:55:09.944Z,12.65
2022-12-04T21:57:57.017Z,13.65
2022-12-04T22:00:44.396Z,12.98
2022-12-04T22:03:31.459Z,14.45
2022-12-04T22:06:20.266Z,13.77
2022-12-04T22:09:10.469Z,13.05
2022-12-04T22:14:44.415Z,16.52
2022-12-04T22:17:31.467Z,14.88
2022-12-04T22:20:18.509Z,13.90
2022-12-04T22:23:05.587Z,14.50
2022-12-04T22:25:52.738Z,11.75
2022-12-04T22:28:40.386Z,12.82
2022-12-04T22:31:29.256Z,12.82
2022-12-04T22:34:16.343Z,12.30
2022-12-04T22:37:03.416Z,13.60
2022-12-04T22:39:50.454Z,13.25
2022-12-04T22:42:37.489Z,12.25
2022-12-04T22:45:24.619Z,14.02
2022-12-04T22:48:11.826Z,11.68
2022-12-04T22:51:11.023Z,12.60
2022-12-04T22:53:58.595Z,11.55
2022-12-04T22:56:45.632Z,12.70
2022-12-04T22:59:32.964Z,14.23
2022-12-04T23:02:20.254Z,12.30
2022-12-04T23:05:07.544Z,12.63
2022-12-04T23:07:55.667Z,11.23
2022-12-04T23:10:42.836Z,12.25
2022-12-04T23:13:29.830Z,11.73
2022-12-04T23:16:20.124Z,11.13
2022-12-04T23:19:09.467Z,12.50
2022-12-04T23:21:57.356Z,13.13
2022-12-04T23:24:44.495Z,12.88
2022-12-04T23:27:32.311Z,11.20
2022-12-04T23:30:26.166Z,10.98
2022-12-04T23:33:14.562Z,11.23
2022-12-04T23:36:09.031Z,10.00
2022-12-04T23:38:56.526Z,10.32
2022-12-04T23:41:43.510Z,11.73
2022-12-04T23:44:30.598Z,11.27
2022-12-04T23:47:17.649Z,11.50
2022-12-04T23:50:05.243Z,13.35
2022-12-04T23:52:52.281Z,12.05
2022-12-04T23:55:39.735Z,12.60
2022-12-04T23:58:26.888Z,9.77
